• Join FlightAware (Why Join?)
  • Login
  • US Flag 
12:25AM EDT


 

Airport Tracker/Info


-or-


 

Live Flight TrackerFlight Track Log ✈ FLG3862 ✈ 26-Apr-2013 ✈ KBTV - KDTW

Flight Track Log - Related Links

Times and Time Zones

All times are in EDT time to prevent confusion due to time zone crossing. See the FLG3862 flight status page for this flight to view local times or setup timezone preferences in your user account.

Time Position Orientation Groundspeed Altitude Reporting Facility
EDT Latitude Longitude Course Direction KTS MPH feet Rate Location/Type
12:44PM 44.4043 -73.5247 253° West  Level FlightAware Approximate
12:44PM 44.4614 -73.4175 256° West 274 315 8,600  Level Boston Center
12:45PM 44.3779 -73.6478 253° West  Level FlightAware Approximate
12:45PM 44.4417 -73.5217 255° West 280 322 10,800  Level Boston Center
12:46PM 44.3564 -73.7726 259° West  Level FlightAware Approximate
12:46PM 44.4217 -73.6375 256° West 301 346 12,600  Level Boston Center
12:47PM 44.3383 -73.8985 259° West  Level FlightAware Approximate
12:47PM 44.3975 -73.7650 255° West 325 374 14,900  Level Boston Center
12:48PM 44.3168 -74.0233 256° West  Level FlightAware Approximate
12:48PM 44.3706 -73.9125 256° West 330 380 16,800  Level Boston Center
12:49PM 44.2939 -74.1475 256° West  Level FlightAware Approximate
12:49PM 44.3461 -74.0425 255° West 338 389 18,000  Level Boston Center
12:50PM 44.3211 -74.1725 255° West 343 395 19,600 1,500 Climbing Boston Center
12:51PM 44.2961 -74.3081 256° West 348 400 21,000 1,260 Climbing Boston Center
12:52PM 44.2711 -74.4436 256° West 358 412 22,200 1,080 Climbing Boston Center
12:53PM 44.2456 -74.5847 256° West 368 423 23,200 960 Climbing Boston Center
12:54PM 44.2200 -74.7228 256° West 374 430 24,200 780 Climbing Boston Center
12:55PM 44.1942 -74.8636 256° West 374 430 24,800 600 Climbing Boston Center
12:56PM 44.1639 -75.0072 254° West 374 430 25,400 600 Climbing Boston Center
12:57PM 44.1356 -75.1536 255° West 385 443 26,000 600 Climbing Boston Center
12:58PM 44.1094 -75.2883 255° West 396 456 26,600 600 Climbing Boston Center
12:59PM 44.0828 -75.4344 256° West 396 456 27,200 600 Climbing Boston Center
01:00PM 44.0539 -75.5803 255° West 396 456 27,800 600 Climbing Boston Center
01:01PM 44.0225 -75.7289 254° West 396 456 28,400 480 Climbing Boston Center
01:03PM 43.9931 -75.8775 255° West 396 456 28,900 480 Climbing Boston Center
01:04PM 43.9606 -76.0544 256° West 396 456 29,500 540 Climbing Boston Center
01:05PM 43.9517 -76.2039 265° West 391 450 30,000 240 Climbing Boston Center
01:06PM 43.9489 -76.3508 269° West 391 450 30,000  Level Boston Center
01:07PM 43.9456 -76.5036 268° West 391 450 30,000  Level Boston Center
01:08PM 43.9333 -76.6667 264° West 390 449 30,000  Level Toronto Center
01:09PM 43.9167 -76.8333 262° West 390 449 30,000  Level Toronto Center
01:10PM 43.9167 -76.9667 270° West 390 449 30,000  Level Toronto Center
01:11PM 43.9000 -77.1333 262° West 390 449 30,000  Level Toronto Center
01:12PM 43.9000 -77.2667 270° West 380 437 30,000  Level Toronto Center
01:13PM 43.9000 -77.4167 270° West 380 437 30,000  Level Toronto Center
01:14PM 43.9000 -77.5667 270° West 380 437 30,000  Level Toronto Center
01:15PM 43.9000 -77.7167 270° West 380 437 30,000  Level Toronto Center
01:16PM 43.8833 -77.8500 260° West 380 437 30,000  Level Toronto Center
01:17PM 43.8833 -78.0167 270° West 380 437 30,000  Level Toronto Center
01:18PM 43.8667 -78.1500 260° West 380 437 30,000  Level Toronto Center
01:19PM 43.8667 -78.2833 270° West 380 437 30,000  Level Toronto Center
01:20PM 43.8500 -78.4500 262° West 380 437 30,000 -60 Level Toronto Center
01:21PM 43.8667 -78.6000 279° West 380 437 29,900 -540 Descending Toronto Center
01:22PM 43.8000 -78.7333 235° Southwest 400 460 29,000 -960 Descending Toronto Center
01:23PM 43.7333 -78.8667 235° Southwest 420 483 28,000 -540 Descending Toronto Center
01:24PM 43.6667 -78.9833 232° Southwest 420 483 28,000  Level Toronto Center
01:25PM 43.6000 -79.1333 238° Southwest 410 472 28,000  Level Toronto Center
01:26PM 43.5333 -79.2500 232° Southwest 410 472 28,000  Level Toronto Center
01:27PM 43.4833 -79.3833 243° Southwest 400 460 28,000  Level Toronto Center
01:28PM 43.4167 -79.5000 232° Southwest 400 460 28,000  Level Toronto Center
01:29PM 43.3500 -79.6333 236° Southwest 390 449 28,000  Level Toronto Center
01:30PM 43.2833 -79.7500 232° Southwest 400 460 28,000  Level Toronto Center
01:31PM 43.2167 -79.8833 236° Southwest 390 449 28,000  Level Toronto Center
01:32PM 43.1667 -80.0000 240° Southwest 390 449 28,000 -300 Level Toronto Center
01:33PM 43.1000 -80.1167 232° Southwest 400 460 27,500 -1,020 Descending Toronto Center
01:34PM 43.0333 -80.2500 236° Southwest 410 472 26,000 -1,500 Descending Toronto Center
01:35PM 42.9667 -80.3667 232° Southwest 410 472 24,600 -1,500 Descending Toronto Center
01:36PM 42.9000 -80.5000 236° Southwest 400 460 23,100 -840 Descending Toronto Center
01:37PM 42.8500 -80.6167 240° Southwest 390 449 23,000 -120 Descending Toronto Center
01:37PM 42.8311 -80.6597 239° Southwest 401 461 23,000  Level Cleveland Center
01:38PM 42.7686 -80.7697 232° Southwest 390 449 23,000  Level Cleveland Center
01:39PM 42.7100 -80.8883 236° Southwest 377 434 23,000  Level Cleveland Center
01:40PM 42.6928 -81.0211 260° West 357 411 23,000  Level Cleveland Center
01:41PM 42.6775 -81.1564 261° West 363 418 23,000  Level Cleveland Center
01:42PM 42.6603 -81.2919 260° West 363 418 23,000  Level Cleveland Center
01:43PM 42.6469 -81.4103 261° West 368 423 23,000  Level Cleveland Center
01:44PM 42.6292 -81.5456 260° West 368 423 23,000  Level Cleveland Center
01:45PM 42.6156 -81.6806 262° West 369 425 23,000 -240 Level Cleveland Center
01:46PM 42.5953 -81.8269 259° West 364 419 22,600 -1,200 Descending Cleveland Center
01:47PM 42.5792 -81.9619 261° West 369 425 20,600 -2,040 Descending Cleveland Center
01:48PM 42.5628 -82.0997 261° West 369 425 18,600 -2,040 Descending Cleveland Center
01:48PM 42.5622 -82.1336 269° West 368 423 18,000 -1,500 Descending Cleveland Center
01:49PM 42.5486 -82.2261 259° West 364 419 17,100 -1,680 Descending Cleveland Center
01:49PM 42.5417 -82.2656 257° West 316 364 16,300 -2,160 Descending Cleveland Center
01:50PM 42.5294 -82.3836 262° West 304 350 14,300 -1,920 Descending Cleveland Center
01:51PM 42.5181 -82.4508 257° West 313 360 13,100 -1,980 Descending Cleveland Center
01:51PM 42.5153 -82.4875 264° West 286 329 12,300 -1,140 Descending Cleveland Center
01:52PM 42.5039 -82.5517 256° West 297 342 12,000 -300 Descending Cleveland Center
01:52PM 42.4928 -82.5853 246° West 288 331 12,000 -720 Level Cleveland Center
01:53PM 42.4708 -82.6492 245° Southwest 285 328 11,300 -1,500 Descending Cleveland Center
01:53PM 42.4575 -82.6883 245° Southwest 273 314 10,500 -1,920 Descending Cleveland Center
01:54PM 42.4358 -82.7411 241° Southwest 285 328 9,400 -1,500 Descending Cleveland Center
01:54PM 42.4225 -82.7800 245° Southwest 274 315 9,000 -600 Descending Cleveland Center
01:55PM 42.4111 -82.8358 255° West 279 321 8,800 -600 Descending Cleveland Center
01:55PM 42.4164 -82.8753 280° West 258 297 8,400 -1,020 Descending Cleveland Center
01:56PM 42.4114 -82.9286 263° West 259 298 7,800 -1,020 Descending Cleveland Center
01:56PM 42.4144 -82.9708 276° West 257 296 7,400 -1,140 Descending Cleveland Center
01:57PM 42.4092 -83.0269 263° West 259 298 6,700 -1,260 Descending Cleveland Center
01:58PM 42.4042 -83.0717 261° West 258 297 6,100 -960 Descending Cleveland Center
01:59PM 42.3856 -83.1525 253° West 202 232 5,300 -1,020 Descending Cleveland Center
02:00PM 42.3572 -83.2106 237° Southwest 169 194 4,100 -1,020 Descending Cleveland Center
02:01PM 42.3269 -83.2569 229° Southwest 145 167 3,300 -780 Descending Cleveland Center